WOT weather

Wang-an Airport
Wang-an, Penghu County, Taiwan

Public forecast

Using degrees Celsius for public forecast. Weather courtesy of forecast.io.

METAR (pilot weather report)

Closest report is Tainan Airport, 46.2 nm (85.5 km) ESE. Retrieved 2019/05/22 04:30 UTC (10 minutes ago):

RCNN 220430Z 27005KT 9999 FEW016 BKN100 29/23 Q1009 NOSIG RMK A2981

TAF (pilot weather forecast)

Forecast is more than 12 hours old.

Closest forecast is Makung Airport, 13.9 nm (25.8 km) NNE. Retrieved 2016/01/09 00:24 UTC (3 years ago):

TAF RCQC 092300Z 1000/1024 02014KT 8000 SCT006 BKN012 BKN021 TX19/1006Z TN16/1020Z BECMG 1007/1010 FEW006 BKN021 BKN040 BECMG 1011/1014 5000 BR SCT006 BKN014 TEMPO 1018/1023 3200 -RA BR SCT006 BKN012